sensor_id;sensor_type;location;lat;lon;timestamp;temperature;humidity
3727;DHT22;1879;45.876;12.300;2024-03-17T00:00:37;11.80;1.00
3727;DHT22;1879;45.876;12.300;2024-03-17T00:03:05;11.80;1.00
3727;DHT22;1879;45.876;12.300;2024-03-17T00:05:35;11.80;1.00
3727;DHT22;1879;45.876;12.300;2024-03-17T00:08:01;11.80;1.00
3727;DHT22;1879;45.876;12.300;2024-03-17T00:10:30;11.80;1.00
3727;DHT22;1879;45.876;12.300;2024-03-17T00:12:56;11.80;1.00
3727;DHT22;1879;45.876;12.300;2024-03-17T00:15:23;11.80;1.00
3727;DHT22;1879;45.876;12.300;2024-03-17T00:17:49;11.70;1.00
3727;DHT22;1879;45.876;12.300;2024-03-17T00:20:16;11.70;1.00
3727;DHT22;1879;45.876;12.300;2024-03-17T00:22:47;11.70;1.00
3727;DHT22;1879;45.876;12.300;2024-03-17T00:25:14;11.70;1.00
3727;DHT22;1879;45.876;12.300;2024-03-17T00:27:40;11.70;1.00
3727;DHT22;1879;45.876;12.300;2024-03-17T00:30:10;11.60;1.00
3727;DHT22;1879;45.876;12.300;2024-03-17T00:32:38;11.50;1.00
3727;DHT22;1879;45.876;12.300;2024-03-17T00:35:06;11.50;1.00
3727;DHT22;1879;45.876;12.300;2024-03-17T00:37:33;11.50;1.00
3727;DHT22;1879;45.876;12.300;2024-03-17T00:40:02;11.50;1.00
3727;DHT22;1879;45.876;12.300;2024-03-17T00:42:28;11.50;1.00
3727;DHT22;1879;45.876;12.300;2024-03-17T00:44:55;11.50;1.00
3727;DHT22;1879;45.876;12.300;2024-03-17T00:47:21;11.50;1.00
3727;DHT22;1879;45.876;12.300;2024-03-17T00:49:48;11.50;1.00
3727;DHT22;1879;45.876;12.300;2024-03-17T00:52:15;11.40;1.00
3727;DHT22;1879;45.876;12.300;2024-03-17T00:54:42;11.40;1.00
3727;DHT22;1879;45.876;12.300;2024-03-17T00:57:10;11.30;1.00
3727;DHT22;1879;45.876;12.300;2024-03-17T00:59:36;11.10;1.00
3727;DHT22;1879;45.876;12.300;2024-03-17T01:02:02;11.10;1.00
3727;DHT22;1879;45.876;12.300;2024-03-17T01:04:29;11.00;1.00
3727;DHT22;1879;45.876;12.300;2024-03-17T01:06:59;11.00;1.00
3727;DHT22;1879;45.876;12.300;2024-03-17T01:09:26;11.00;1.00
3727;DHT22;1879;45.876;12.300;2024-03-17T01:11:52;11.00;1.00
3727;DHT22;1879;45.876;12.300;2024-03-17T01:14:20;11.00;1.00
3727;DHT22;1879;45.876;12.300;2024-03-17T01:16:46;11.00;1.00
3727;DHT22;1879;45.876;12.300;2024-03-17T01:19:13;11.00;1.00
3727;DHT22;1879;45.876;12.300;2024-03-17T01:21:39;11.10;1.00
3727;DHT22;1879;45.876;12.300;2024-03-17T01:24:05;11.10;1.00
3727;DHT22;1879;45.876;12.300;2024-03-17T01:26:31;11.00;1.00
3727;DHT22;1879;45.876;12.300;2024-03-17T01:28:58;11.00;1.00
3727;DHT22;1879;45.876;12.300;2024-03-17T01:31:25;11.00;1.00
3727;DHT22;1879;45.876;12.300;2024-03-17T01:33:52;10.90;11.80
3727;DHT22;1879;45.876;12.300;2024-03-17T01:36:18;10.90;9.90
3727;DHT22;1879;45.876;12.300;2024-03-17T01:38:45;10.90;6.40
3727;DHT22;1879;45.876;12.300;2024-03-17T01:41:11;11.00;7.00
3727;DHT22;1879;45.876;12.300;2024-03-17T01:43:38;11.00;1.00
3727;DHT22;1879;45.876;12.300;2024-03-17T01:46:05;11.00;1.00
3727;DHT22;1879;45.876;12.300;2024-03-17T01:48:34;11.10;1.00
3727;DHT22;1879;45.876;12.300;2024-03-17T01:51:01;11.10;1.00
3727;DHT22;1879;45.876;12.300;2024-03-17T01:53:28;11.00;1.00
3727;DHT22;1879;45.876;12.300;2024-03-17T01:55:57;10.90;1.00
3727;DHT22;1879;45.876;12.300;2024-03-17T01:58:25;10.80;1.00
3727;DHT22;1879;45.876;12.300;2024-03-17T02:00:51;10.70;1.00
3727;DHT22;1879;45.876;12.300;2024-03-17T02:03:18;10.60;3.70
3727;DHT22;1879;45.876;12.300;2024-03-17T02:05:45;10.70;1.00
3727;DHT22;1879;45.876;12.300;2024-03-17T02:08:13;10.60;1.00
3727;DHT22;1879;45.876;12.300;2024-03-17T02:10:39;10.70;1.00
3727;DHT22;1879;45.876;12.300;2024-03-17T02:13:06;10.70;1.00
3727;DHT22;1879;45.876;12.300;2024-03-17T02:15:33;10.70;1.00
3727;DHT22;1879;45.876;12.300;2024-03-17T02:17:59;10.70;1.00
3727;DHT22;1879;45.876;12.300;2024-03-17T02:20:27;10.70;1.00
3727;DHT22;1879;45.876;12.300;2024-03-17T02:23:09;10.70;1.00
3727;DHT22;1879;45.876;12.300;2024-03-17T02:25:36;10.80;1.00
3727;DHT22;1879;45.876;12.300;2024-03-17T02:28:03;10.80;1.40
3727;DHT22;1879;45.876;12.300;2024-03-17T02:30:30;10.70;18.90
3727;DHT22;1879;45.876;12.300;2024-03-17T02:32:56;10.80;19.40
3727;DHT22;1879;45.876;12.300;2024-03-17T02:35:24;10.80;9.60
3727;DHT22;1879;45.876;12.300;2024-03-17T02:37:50;10.80;1.80
3727;DHT22;1879;45.876;12.300;2024-03-17T02:40:18;10.80;1.00
3727;DHT22;1879;45.876;12.300;2024-03-17T02:42:44;10.70;1.00
3727;DHT22;1879;45.876;12.300;2024-03-17T02:45:11;10.60;1.00
3727;DHT22;1879;45.876;12.300;2024-03-17T02:47:39;10.60;1.00
3727;DHT22;1879;45.876;12.300;2024-03-17T02:50:07;10.60;1.00
3727;DHT22;1879;45.876;12.300;2024-03-17T02:52:35;10.60;1.00
3727;DHT22;1879;45.876;12.300;2024-03-17T02:55:02;10.60;1.00
3727;DHT22;1879;45.876;12.300;2024-03-17T02:57:30;10.70;1.00
3727;DHT22;1879;45.876;12.300;2024-03-17T02:59:57;10.70;8.60
3727;DHT22;1879;45.876;12.300;2024-03-17T03:02:24;10.70;11.20
3727;DHT22;1879;45.876;12.300;2024-03-17T03:04:51;10.70;4.20
3727;DHT22;1879;45.876;12.300;2024-03-17T03:07:18;10.80;2.30
3727;DHT22;1879;45.876;12.300;2024-03-17T03:09:45;10.80;1.00
3727;DHT22;1879;45.876;12.300;2024-03-17T03:12:12;10.80;1.00
3727;DHT22;1879;45.876;12.300;2024-03-17T03:14:41;10.70;1.00
3727;DHT22;1879;45.876;12.300;2024-03-17T03:17:08;10.70;1.00
3727;DHT22;1879;45.876;12.300;2024-03-17T03:19:35;10.70;1.00
3727;DHT22;1879;45.876;12.300;2024-03-17T03:22:02;10.60;1.00
3727;DHT22;1879;45.876;12.300;2024-03-17T03:24:29;10.50;1.00
3727;DHT22;1879;45.876;12.300;2024-03-17T03:26:56;10.40;1.00
3727;DHT22;1879;45.876;12.300;2024-03-17T03:29:23;10.40;8.70
3727;DHT22;1879;45.876;12.300;2024-03-17T03:31:51;10.40;8.20
3727;DHT22;1879;45.876;12.300;2024-03-17T03:34:18;10.40;8.30
3727;DHT22;1879;45.876;12.300;2024-03-17T03:36:45;10.30;5.70
3727;DHT22;1879;45.876;12.300;2024-03-17T03:39:11;10.30;7.30
3727;DHT22;1879;45.876;12.300;2024-03-17T03:41:39;10.20;8.00
3727;DHT22;1879;45.876;12.300;2024-03-17T03:44:06;10.10;16.60
3727;DHT22;1879;45.876;12.300;2024-03-17T03:46:36;10.10;20.60
3727;DHT22;1879;45.876;12.300;2024-03-17T03:49:04;10.10;17.60
3727;DHT22;1879;45.876;12.300;2024-03-17T03:51:31;10.00;6.50
3727;DHT22;1879;45.876;12.300;2024-03-17T03:53:58;9.90;12.20
3727;DHT22;1879;45.876;12.300;2024-03-17T03:56:24;10.00;31.10
3727;DHT22;1879;45.876;12.300;2024-03-17T03:58:51;9.90;69.10
3727;DHT22;1879;45.876;12.300;2024-03-17T04:01:19;9.90;50.30
3727;DHT22;1879;45.876;12.300;2024-03-17T04:03:48;9.90;54.50
3727;DHT22;1879;45.876;12.300;2024-03-17T04:06:16;10.00;34.70
3727;DHT22;1879;45.876;12.300;2024-03-17T04:08:43;10.00;26.40
3727;DHT22;1879;45.876;12.300;2024-03-17T04:11:10;9.90;23.60
3727;DHT22;1879;45.876;12.300;2024-03-17T04:13:38;10.00;34.50
3727;DHT22;1879;45.876;12.300;2024-03-17T04:16:06;10.00;37.60
3727;DHT22;1879;45.876;12.300;2024-03-17T04:18:33;9.90;24.20
3727;DHT22;1879;45.876;12.300;2024-03-17T04:21:02;9.90;27.70
3727;DHT22;1879;45.876;12.300;2024-03-17T04:23:31;9.90;30.00
3727;DHT22;1879;45.876;12.300;2024-03-17T04:25:59;10.00;17.80
3727;DHT22;1879;45.876;12.300;2024-03-17T04:28:26;9.90;11.40
3727;DHT22;1879;45.876;12.300;2024-03-17T04:31:02;9.90;14.10
3727;DHT22;1879;45.876;12.300;2024-03-17T04:33:30;9.90;18.70
3727;DHT22;1879;45.876;12.300;2024-03-17T04:35:56;9.90;13.30
3727;DHT22;1879;45.876;12.300;2024-03-17T04:38:23;10.00;12.60
3727;DHT22;1879;45.876;12.300;2024-03-17T04:40:52;10.00;8.60
3727;DHT22;1879;45.876;12.300;2024-03-17T04:43:24;10.00;3.20
3727;DHT22;1879;45.876;12.300;2024-03-17T04:45:59;10.00;10.20
3727;DHT22;1879;45.876;12.300;2024-03-17T04:48:26;10.00;13.50
3727;DHT22;1879;45.876;12.300;2024-03-17T04:50:53;10.10;11.10
3727;DHT22;1879;45.876;12.300;2024-03-17T04:53:20;10.10;1.00
3727;DHT22;1879;45.876;12.300;2024-03-17T04:55:47;10.00;7.30
3727;DHT22;1879;45.876;12.300;2024-03-17T04:58:15;10.00;5.10
3727;DHT22;1879;45.876;12.300;2024-03-17T05:00:42;10.00;1.00
3727;DHT22;1879;45.876;12.300;2024-03-17T05:03:09;10.00;8.00
3727;DHT22;1879;45.876;12.300;2024-03-17T05:05:36;10.00;4.50
3727;DHT22;1879;45.876;12.300;2024-03-17T05:08:03;10.00;1.00
3727;DHT22;1879;45.876;12.300;2024-03-17T05:10:30;9.90;1.00
3727;DHT22;1879;45.876;12.300;2024-03-17T05:12:57;9.90;1.70
3727;DHT22;1879;45.876;12.300;2024-03-17T05:15:26;9.90;6.10
3727;DHT22;1879;45.876;12.300;2024-03-17T05:17:54;9.90;1.20
3727;DHT22;1879;45.876;12.300;2024-03-17T05:20:21;9.90;5.30
3727;DHT22;1879;45.876;12.300;2024-03-17T05:22:49;9.90;18.60
3727;DHT22;1879;45.876;12.300;2024-03-17T05:25:15;9.90;21.90
3727;DHT22;1879;45.876;12.300;2024-03-17T05:27:42;10.00;10.80
3727;DHT22;1879;45.876;12.300;2024-03-17T05:30:10;9.90;8.80
3727;DHT22;1879;45.876;12.300;2024-03-17T05:32:39;9.90;13.50
3727;DHT22;1879;45.876;12.300;2024-03-17T05:35:06;9.80;16.80
3727;DHT22;1879;45.876;12.300;2024-03-17T05:37:34;9.80;13.50
3727;DHT22;1879;45.876;12.300;2024-03-17T05:40:01;9.90;4.90
3727;DHT22;1879;45.876;12.300;2024-03-17T05:42:28;9.80;4.70
3727;DHT22;1879;45.876;12.300;2024-03-17T05:44:55;9.80;13.60
3727;DHT22;1879;45.876;12.300;2024-03-17T05:47:21;9.80;10.60
3727;DHT22;1879;45.876;12.300;2024-03-17T05:49:50;9.80;9.70
3727;DHT22;1879;45.876;12.300;2024-03-17T05:52:17;9.80;8.60
3727;DHT22;1879;45.876;12.300;2024-03-17T05:54:44;9.80;16.30
3727;DHT22;1879;45.876;12.300;2024-03-17T05:57:11;9.90;14.10
3727;DHT22;1879;45.876;12.300;2024-03-17T05:59:39;10.00;15.10
3727;DHT22;1879;45.876;12.300;2024-03-17T06:02:06;10.10;14.10
3727;DHT22;1879;45.876;12.300;2024-03-17T06:04:35;10.10;13.60
3727;DHT22;1879;45.876;12.300;2024-03-17T06:07:05;10.20;1.20
3727;DHT22;1879;45.876;12.300;2024-03-17T06:09:32;10.30;1.00
3727;DHT22;1879;45.876;12.300;2024-03-17T06:11:59;10.30;1.00
3727;DHT22;1879;45.876;12.300;2024-03-17T06:14:26;10.40;1.00
3727;DHT22;1879;45.876;12.300;2024-03-17T06:16:53;10.40;1.00
3727;DHT22;1879;45.876;12.300;2024-03-17T06:19:20;10.50;1.00
3727;DHT22;1879;45.876;12.300;2024-03-17T06:21:47;10.50;1.00
3727;DHT22;1879;45.876;12.300;2024-03-17T06:24:15;10.50;1.00
3727;DHT22;1879;45.876;12.300;2024-03-17T06:26:42;10.60;1.00
3727;DHT22;1879;45.876;12.300;2024-03-17T06:29:08;10.70;1.00
3727;DHT22;1879;45.876;12.300;2024-03-17T06:31:35;10.80;1.00
3727;DHT22;1879;45.876;12.300;2024-03-17T06:34:02;10.90;1.00
3727;DHT22;1879;45.876;12.300;2024-03-17T06:36:29;11.00;1.00
3727;DHT22;1879;45.876;12.300;2024-03-17T06:38:56;11.20;1.00
3727;DHT22;1879;45.876;12.300;2024-03-17T06:41:24;11.30;1.00
3727;DHT22;1879;45.876;12.300;2024-03-17T06:43:51;11.30;1.00
3727;DHT22;1879;45.876;12.300;2024-03-17T06:46:18;11.30;1.00
3727;DHT22;1879;45.876;12.300;2024-03-17T06:48:45;11.40;1.00
3727;DHT22;1879;45.876;12.300;2024-03-17T06:51:12;11.50;1.00
3727;DHT22;1879;45.876;12.300;2024-03-17T06:53:39;11.60;1.00
3727;DHT22;1879;45.876;12.300;2024-03-17T06:56:06;11.70;1.00
3727;DHT22;1879;45.876;12.300;2024-03-17T06:58:35;11.80;1.00
3727;DHT22;1879;45.876;12.300;2024-03-17T07:01:02;11.90;1.00
3727;DHT22;1879;45.876;12.300;2024-03-17T07:03:30;11.90;1.00
3727;DHT22;1879;45.876;12.300;2024-03-17T07:05:59;12.00;1.00
3727;DHT22;1879;45.876;12.300;2024-03-17T07:08:28;12.10;1.00
3727;DHT22;1879;45.876;12.300;2024-03-17T07:10:56;12.10;1.00
3727;DHT22;1879;45.876;12.300;2024-03-17T07:13:22;12.20;1.00
3727;DHT22;1879;45.876;12.300;2024-03-17T07:15:51;12.30;1.00
3727;DHT22;1879;45.876;12.300;2024-03-17T07:18:19;12.40;1.00
3727;DHT22;1879;45.876;12.300;2024-03-17T07:20:46;12.40;1.00
3727;DHT22;1879;45.876;12.300;2024-03-17T07:23:14;12.50;1.00
3727;DHT22;1879;45.876;12.300;2024-03-17T07:25:41;12.60;1.00
3727;DHT22;1879;45.876;12.300;2024-03-17T07:28:08;12.70;1.00
3727;DHT22;1879;45.876;12.300;2024-03-17T07:30:35;12.80;1.00
3727;DHT22;1879;45.876;12.300;2024-03-17T07:33:04;13.00;1.00
3727;DHT22;1879;45.876;12.300;2024-03-17T07:35:31;13.10;1.00
3727;DHT22;1879;45.876;12.300;2024-03-17T07:37:59;13.20;1.00
3727;DHT22;1879;45.876;12.300;2024-03-17T07:40:25;13.30;1.00
3727;DHT22;1879;45.876;12.300;2024-03-17T07:42:52;13.20;1.00
3727;DHT22;1879;45.876;12.300;2024-03-17T07:45:19;13.30;1.00
3727;DHT22;1879;45.876;12.300;2024-03-17T07:47:50;13.20;1.00
3727;DHT22;1879;45.876;12.300;2024-03-17T07:50:18;13.20;1.00
3727;DHT22;1879;45.876;12.300;2024-03-17T07:52:45;13.20;1.00
3727;DHT22;1879;45.876;12.300;2024-03-17T07:55:12;13.10;1.00
3727;DHT22;1879;45.876;12.300;2024-03-17T07:57:39;13.10;1.00
3727;DHT22;1879;45.876;12.300;2024-03-17T08:00:07;13.20;1.00
3727;DHT22;1879;45.876;12.300;2024-03-17T08:02:41;13.30;1.00
3727;DHT22;1879;45.876;12.300;2024-03-17T08:05:08;13.40;1.00
3727;DHT22;1879;45.876;12.300;2024-03-17T08:07:37;13.40;1.00
3727;DHT22;1879;45.876;12.300;2024-03-17T08:10:05;13.50;1.00
3727;DHT22;1879;45.876;12.300;2024-03-17T08:12:32;13.60;1.00
3727;DHT22;1879;45.876;12.300;2024-03-17T08:14:59;13.70;1.00
3727;DHT22;1879;45.876;12.300;2024-03-17T08:17:26;13.70;1.00
3727;DHT22;1879;45.876;12.300;2024-03-17T08:19:53;13.70;1.00
3727;DHT22;1879;45.876;12.300;2024-03-17T08:22:20;13.80;1.00
3727;DHT22;1879;45.876;12.300;2024-03-17T08:24:49;13.90;1.00
3727;DHT22;1879;45.876;12.300;2024-03-17T08:27:16;14.00;1.00
3727;DHT22;1879;45.876;12.300;2024-03-17T08:29:43;14.10;1.00
3727;DHT22;1879;45.876;12.300;2024-03-17T08:32:11;14.10;1.00
3727;DHT22;1879;45.876;12.300;2024-03-17T08:34:38;14.20;1.00
3727;DHT22;1879;45.876;12.300;2024-03-17T08:37:05;14.40;1.00
3727;DHT22;1879;45.876;12.300;2024-03-17T08:39:34;14.40;1.00
3727;DHT22;1879;45.876;12.300;2024-03-17T08:42:03;14.40;1.00
3727;DHT22;1879;45.876;12.300;2024-03-17T08:44:29;14.50;1.00
3727;DHT22;1879;45.876;12.300;2024-03-17T08:46:56;14.60;1.00
3727;DHT22;1879;45.876;12.300;2024-03-17T08:49:24;14.50;1.00
3727;DHT22;1879;45.876;12.300;2024-03-17T08:51:51;14.50;1.00
3727;DHT22;1879;45.876;12.300;2024-03-17T08:54:18;14.60;1.00
3727;DHT22;1879;45.876;12.300;2024-03-17T08:56:45;14.60;1.00
3727;DHT22;1879;45.876;12.300;2024-03-17T08:59:13;14.70;1.00
3727;DHT22;1879;45.876;12.300;2024-03-17T09:01:40;14.80;1.00
3727;DHT22;1879;45.876;12.300;2024-03-17T09:04:07;14.80;1.00
3727;DHT22;1879;45.876;12.300;2024-03-17T09:06:37;14.80;1.00
3727;DHT22;1879;45.876;12.300;2024-03-17T09:09:03;14.80;1.00
3727;DHT22;1879;45.876;12.300;2024-03-17T09:11:31;14.90;1.00
3727;DHT22;1879;45.876;12.300;2024-03-17T09:13:59;14.90;1.00
3727;DHT22;1879;45.876;12.300;2024-03-17T09:16:28;15.00;1.00
3727;DHT22;1879;45.876;12.300;2024-03-17T09:18:56;15.10;1.00
3727;DHT22;1879;45.876;12.300;2024-03-17T09:21:23;15.20;1.00
3727;DHT22;1879;45.876;12.300;2024-03-17T09:23:50;15.30;1.00
3727;DHT22;1879;45.876;12.300;2024-03-17T09:26:17;15.50;1.00
3727;DHT22;1879;45.876;12.300;2024-03-17T09:28:44;15.50;99.90
3727;DHT22;1879;45.876;12.300;2024-03-17T09:31:11;15.60;99.90
3727;DHT22;1879;45.876;12.300;2024-03-17T09:33:39;15.70;99.90
3727;DHT22;1879;45.876;12.300;2024-03-17T09:36:07;15.80;99.90
3727;DHT22;1879;45.876;12.300;2024-03-17T09:38:36;15.80;99.90
3727;DHT22;1879;45.876;12.300;2024-03-17T09:41:03;15.90;99.90
3727;DHT22;1879;45.876;12.300;2024-03-17T09:43:32;16.00;41.10
3727;DHT22;1879;45.876;12.300;2024-03-17T09:46:02;16.10;1.80
3727;DHT22;1879;45.876;12.300;2024-03-17T09:48:29;16.20;1.00
3727;DHT22;1879;45.876;12.300;2024-03-17T09:50:58;16.30;1.00
3727;DHT22;1879;45.876;12.300;2024-03-17T09:53:27;16.50;1.00
3727;DHT22;1879;45.876;12.300;2024-03-17T09:55:57;16.60;1.00
3727;DHT22;1879;45.876;12.300;2024-03-17T09:58:24;16.70;99.90
3727;DHT22;1879;45.876;12.300;2024-03-17T10:00:51;16.90;6.70
3727;DHT22;1879;45.876;12.300;2024-03-17T10:03:40;17.10;1.00
3727;DHT22;1879;45.876;12.300;2024-03-17T10:06:09;17.40;1.00
3727;DHT22;1879;45.876;12.300;2024-03-17T10:08:44;17.60;1.00
3727;DHT22;1879;45.876;12.300;2024-03-17T10:11:11;17.70;1.00
3727;DHT22;1879;45.876;12.300;2024-03-17T10:13:39;17.80;99.90
3727;DHT22;1879;45.876;12.300;2024-03-17T10:16:06;17.90;99.90
3727;DHT22;1879;45.876;12.300;2024-03-17T10:18:33;18.10;1.00
3727;DHT22;1879;45.876;12.300;2024-03-17T10:21:00;18.30;1.00
3727;DHT22;1879;45.876;12.300;2024-03-17T10:25:56;18.60;1.00
3727;DHT22;1879;45.876;12.300;2024-03-17T10:28:23;18.90;99.90
3727;DHT22;1879;45.876;12.300;2024-03-17T10:30:59;19.20;99.90
3727;DHT22;1879;45.876;12.300;2024-03-17T10:33:27;19.60;1.00
3727;DHT22;1879;45.876;12.300;2024-03-17T10:36:00;19.70;1.00
3727;DHT22;1879;45.876;12.300;2024-03-17T10:38:29;19.90;99.90
3727;DHT22;1879;45.876;12.300;2024-03-17T10:40:57;20.00;1.00
3727;DHT22;1879;45.876;12.300;2024-03-17T10:43:23;20.00;1.00
3727;DHT22;1879;45.876;12.300;2024-03-17T10:45:54;20.00;35.30
3727;DHT22;1879;45.876;12.300;2024-03-17T10:48:29;20.10;1.00
3727;DHT22;1879;45.876;12.300;2024-03-17T10:50:59;20.20;99.90
3727;DHT22;1879;45.876;12.300;2024-03-17T10:53:30;20.20;1.00
3727;DHT22;1879;45.876;12.300;2024-03-17T10:56:04;20.00;99.90
3727;DHT22;1879;45.876;12.300;2024-03-17T10:58:35;20.10;1.00
3727;DHT22;1879;45.876;12.300;2024-03-17T11:01:03;20.50;1.00
3727;DHT22;1879;45.876;12.300;2024-03-17T11:03:32;20.60;99.90
3727;DHT22;1879;45.876;12.300;2024-03-17T11:06:00;20.70;1.00
3727;DHT22;1879;45.876;12.300;2024-03-17T11:08:31;20.60;1.00
3727;DHT22;1879;45.876;12.300;2024-03-17T11:10:59;20.30;1.00
3727;DHT22;1879;45.876;12.300;2024-03-17T11:13:27;20.50;99.90
3727;DHT22;1879;45.876;12.300;2024-03-17T11:15:55;20.70;97.20
3727;DHT22;1879;45.876;12.300;2024-03-17T11:18:35;20.90;99.90
3727;DHT22;1879;45.876;12.300;2024-03-17T11:21:05;21.20;99.90
3727;DHT22;1879;45.876;12.300;2024-03-17T11:23:38;21.40;1.00
3727;DHT22;1879;45.876;12.300;2024-03-17T11:26:06;21.70;1.00
3727;DHT22;1879;45.876;12.300;2024-03-17T11:28:47;21.20;1.00
3727;DHT22;1879;45.876;12.300;2024-03-17T11:31:36;21.70;1.00
3727;DHT22;1879;45.876;12.300;2024-03-17T11:34:25;22.20;1.00
3727;DHT22;1879;45.876;12.300;2024-03-17T11:36:52;22.30;99.90
3727;DHT22;1879;45.876;12.300;2024-03-17T11:39:20;22.20;99.90
3727;DHT22;1879;45.876;12.300;2024-03-17T11:41:51;22.40;99.90
3727;DHT22;1879;45.876;12.300;2024-03-17T11:44:24;23.00;99.90
3727;DHT22;1879;45.876;12.300;2024-03-17T11:46:53;23.00;99.90
3727;DHT22;1879;45.876;12.300;2024-03-17T11:49:21;22.80;1.00
3727;DHT22;1879;45.876;12.300;2024-03-17T11:51:48;23.00;1.00
3727;DHT22;1879;45.876;12.300;2024-03-17T11:54:16;23.20;1.00
3727;DHT22;1879;45.876;12.300;2024-03-17T11:56:49;23.30;1.00
3727;DHT22;1879;45.876;12.300;2024-03-17T11:59:15;23.30;1.00
3727;DHT22;1879;45.876;12.300;2024-03-17T12:01:44;23.40;1.00
3727;DHT22;1879;45.876;12.300;2024-03-17T12:04:12;23.20;1.00
3727;DHT22;1879;45.876;12.300;2024-03-17T12:06:39;23.40;1.00
3727;DHT22;1879;45.876;12.300;2024-03-17T12:09:09;23.50;1.00
3727;DHT22;1879;45.876;12.300;2024-03-17T12:11:37;23.50;99.90
3727;DHT22;1879;45.876;12.300;2024-03-17T12:14:25;23.20;99.90
3727;DHT22;1879;45.876;12.300;2024-03-17T12:16:53;23.00;99.90
3727;DHT22;1879;45.876;12.300;2024-03-17T12:19:20;22.40;99.90
3727;DHT22;1879;45.876;12.300;2024-03-17T12:21:48;22.70;99.90
3727;DHT22;1879;45.876;12.300;2024-03-17T12:24:17;23.30;99.90
3727;DHT22;1879;45.876;12.300;2024-03-17T12:26:46;23.50;99.90
3727;DHT22;1879;45.876;12.300;2024-03-17T12:29:27;23.50;1.00
3727;DHT22;1879;45.876;12.300;2024-03-17T12:31:59;23.70;99.90
3727;DHT22;1879;45.876;12.300;2024-03-17T12:34:28;23.70;99.90
3727;DHT22;1879;45.876;12.300;2024-03-17T12:36:57;23.40;1.00
3727;DHT22;1879;45.876;12.300;2024-03-17T12:39:24;23.30;1.00
3727;DHT22;1879;45.876;12.300;2024-03-17T12:42:03;23.20;99.90
3727;DHT22;1879;45.876;12.300;2024-03-17T12:44:33;23.30;1.00
3727;DHT22;1879;45.876;12.300;2024-03-17T12:47:02;23.40;1.00
3727;DHT22;1879;45.876;12.300;2024-03-17T12:49:28;23.30;1.00
3727;DHT22;1879;45.876;12.300;2024-03-17T12:51:56;23.10;1.00
3727;DHT22;1879;45.876;12.300;2024-03-17T12:54:23;23.00;1.00
3727;DHT22;1879;45.876;12.300;2024-03-17T12:56:52;23.10;1.00
3727;DHT22;1879;45.876;12.300;2024-03-17T12:59:42;23.00;1.00
3727;DHT22;1879;45.876;12.300;2024-03-17T13:02:27;22.90;1.00
3727;DHT22;1879;45.876;12.300;2024-03-17T13:05:17;22.90;1.00
3727;DHT22;1879;45.876;12.300;2024-03-17T13:07:44;23.20;1.00
3727;DHT22;1879;45.876;12.300;2024-03-17T13:10:13;23.40;1.00
3727;DHT22;1879;45.876;12.300;2024-03-17T13:12:40;23.50;1.00
3727;DHT22;1879;45.876;12.300;2024-03-17T13:15:09;23.40;1.00
3727;DHT22;1879;45.876;12.300;2024-03-17T13:17:38;23.20;1.00
3727;DHT22;1879;45.876;12.300;2024-03-17T13:20:06;23.30;1.00
3727;DHT22;1879;45.876;12.300;2024-03-17T13:22:37;23.20;1.00
3727;DHT22;1879;45.876;12.300;2024-03-17T13:25:08;23.30;1.00
3727;DHT22;1879;45.876;12.300;2024-03-17T13:27:35;23.20;1.00
3727;DHT22;1879;45.876;12.300;2024-03-17T13:30:03;23.10;1.00
3727;DHT22;1879;45.876;12.300;2024-03-17T13:32:33;23.00;1.00
3727;DHT22;1879;45.876;12.300;2024-03-17T13:34:59;22.60;1.00
3727;DHT22;1879;45.876;12.300;2024-03-17T13:37:26;22.50;1.00
3727;DHT22;1879;45.876;12.300;2024-03-17T13:39:53;22.30;1.00
3727;DHT22;1879;45.876;12.300;2024-03-17T13:42:20;22.30;1.00
3727;DHT22;1879;45.876;12.300;2024-03-17T13:44:47;22.20;1.00
3727;DHT22;1879;45.876;12.300;2024-03-17T13:47:14;22.00;1.00
3727;DHT22;1879;45.876;12.300;2024-03-17T13:49:44;22.00;1.00
3727;DHT22;1879;45.876;12.300;2024-03-17T13:52:12;22.10;1.00
3727;DHT22;1879;45.876;12.300;2024-03-17T13:54:39;21.90;1.00
3727;DHT22;1879;45.876;12.300;2024-03-17T13:57:06;21.90;1.00
3727;DHT22;1879;45.876;12.300;2024-03-17T13:59:33;21.90;1.00
3727;DHT22;1879;45.876;12.300;2024-03-17T14:02:01;21.70;1.00
3727;DHT22;1879;45.876;12.300;2024-03-17T14:04:28;21.50;1.00
3727;DHT22;1879;45.876;12.300;2024-03-17T14:06:57;21.30;1.00
3727;DHT22;1879;45.876;12.300;2024-03-17T14:09:24;21.30;1.00
3727;DHT22;1879;45.876;12.300;2024-03-17T14:11:51;21.30;1.00
3727;DHT22;1879;45.876;12.300;2024-03-17T14:14:18;21.50;1.00
3727;DHT22;1879;45.876;12.300;2024-03-17T14:16:45;21.40;1.00
3727;DHT22;1879;45.876;12.300;2024-03-17T14:19:12;21.50;1.00
3727;DHT22;1879;45.876;12.300;2024-03-17T14:21:39;21.40;1.00
3727;DHT22;1879;45.876;12.300;2024-03-17T14:24:21;21.40;1.00
3727;DHT22;1879;45.876;12.300;2024-03-17T14:27:02;21.40;1.00
3727;DHT22;1879;45.876;12.300;2024-03-17T14:29:29;21.20;1.00
3727;DHT22;1879;45.876;12.300;2024-03-17T14:31:58;21.20;1.00
3727;DHT22;1879;45.876;12.300;2024-03-17T14:34:35;21.10;1.00
3727;DHT22;1879;45.876;12.300;2024-03-17T14:37:04;20.90;1.00
3727;DHT22;1879;45.876;12.300;2024-03-17T14:39:33;20.70;1.00
3727;DHT22;1879;45.876;12.300;2024-03-17T14:42:00;20.80;1.00
3727;DHT22;1879;45.876;12.300;2024-03-17T14:44:27;20.70;1.00
3727;DHT22;1879;45.876;12.300;2024-03-17T14:46:54;20.60;1.00
3727;DHT22;1879;45.876;12.300;2024-03-17T14:49:21;20.40;1.00
3727;DHT22;1879;45.876;12.300;2024-03-17T14:51:48;20.10;1.00
3727;DHT22;1879;45.876;12.300;2024-03-17T14:54:15;20.00;1.00
3727;DHT22;1879;45.876;12.300;2024-03-17T14:56:44;19.80;1.00
3727;DHT22;1879;45.876;12.300;2024-03-17T14:59:10;19.70;1.00
3727;DHT22;1879;45.876;12.300;2024-03-17T15:01:38;19.60;1.00
3727;DHT22;1879;45.876;12.300;2024-03-17T15:04:05;19.50;1.00
3727;DHT22;1879;45.876;12.300;2024-03-17T15:06:47;19.60;1.00
3727;DHT22;1879;45.876;12.300;2024-03-17T15:09:14;19.50;1.00
3727;DHT22;1879;45.876;12.300;2024-03-17T15:11:46;19.50;99.90
3727;DHT22;1879;45.876;12.300;2024-03-17T15:14:12;19.40;99.90
3727;DHT22;1879;45.876;12.300;2024-03-17T15:16:39;19.30;1.00
3727;DHT22;1879;45.876;12.300;2024-03-17T15:19:06;19.40;99.90
3727;DHT22;1879;45.876;12.300;2024-03-17T15:21:33;19.20;99.90
3727;DHT22;1879;45.876;12.300;2024-03-17T15:24:01;19.10;99.90
3727;DHT22;1879;45.876;12.300;2024-03-17T15:26:28;19.00;99.90
3727;DHT22;1879;45.876;12.300;2024-03-17T15:28:57;18.90;1.00
3727;DHT22;1879;45.876;12.300;2024-03-17T15:31:29;18.90;99.90
3727;DHT22;1879;45.876;12.300;2024-03-17T15:33:56;18.80;99.90
3727;DHT22;1879;45.876;12.300;2024-03-17T15:36:23;18.80;1.00
3727;DHT22;1879;45.876;12.300;2024-03-17T15:38:51;18.90;99.30
3727;DHT22;1879;45.876;12.300;2024-03-17T15:41:18;18.90;99.90
3727;DHT22;1879;45.876;12.300;2024-03-17T15:43:44;18.80;1.00
3727;DHT22;1879;45.876;12.300;2024-03-17T15:46:15;18.80;99.90
3727;DHT22;1879;45.876;12.300;2024-03-17T15:48:43;18.80;99.90
3727;DHT22;1879;45.876;12.300;2024-03-17T15:51:11;18.70;99.90
3727;DHT22;1879;45.876;12.300;2024-03-17T15:53:38;18.60;1.00
3727;DHT22;1879;45.876;12.300;2024-03-17T15:56:05;18.60;1.00
3727;DHT22;1879;45.876;12.300;2024-03-17T15:58:32;18.60;99.90
3727;DHT22;1879;45.876;12.300;2024-03-17T16:01:05;18.50;1.00
3727;DHT22;1879;45.876;12.300;2024-03-17T16:03:35;18.40;1.00
3727;DHT22;1879;45.876;12.300;2024-03-17T16:06:06;18.30;99.90
3727;DHT22;1879;45.876;12.300;2024-03-17T16:08:37;18.30;1.00